Time;durP1;ratioP1;P1;durP2;ratioP2;P2;SDS_P1;SDS_P2;PMS_P1;PMS_P2;Temp;Humidity;BMP_temperature;BMP_pressure;BME280_temperature;BME280_humidity;BME280_pressure;Samples;Min_cycle;Max_cycle;Signal;HPM_P1;HPM_P2
2020/12/24 00:01:18;;;;;;;11.10;2.43;;;9.60;99.90;;;;;;5012285;28;20455;-73
2020/12/24 00:03:44;;;;;;;6.13;1.80;;;9.50;99.90;;;;;;5012914;28;20446;-73
2020/12/24 00:06:09;;;;;;;8.20;3.80;;;9.50;99.90;;;;;;5011288;28;20177;-73
2020/12/24 00:08:36;;;;;;;7.43;2.07;;;9.50;99.90;;;;;;5009458;28;20184;-72
2020/12/24 00:11:02;;;;;;;5.43;1.73;;;9.50;99.90;;;;;;5011101;28;20192;-73
2020/12/24 00:13:28;;;;;;;4.10;1.57;;;9.50;99.90;;;;;;5018056;28;20901;-74
2020/12/24 00:15:53;;;;;;;11.80;2.57;;;9.50;99.90;;;;;;5004195;28;20455;-72
2020/12/24 00:18:20;;;;;;;6.77;1.67;;;9.40;99.90;;;;;;5008518;28;20180;-72
2020/12/24 00:20:46;;;;;;;8.53;2.17;;;9.40;99.90;;;;;;5010656;28;20310;-73
2020/12/24 00:23:12;;;;;;;4.90;2.07;;;9.40;99.90;;;;;;5012122;28;20431;-73
2020/12/24 00:25:37;;;;;;;9.90;2.57;;;9.30;99.90;;;;;;5006790;28;20431;-73
2020/12/24 00:28:03;;;;;;;11.50;2.50;;;9.30;99.90;;;;;;5011685;28;20206;-72
2020/12/24 00:30:28;;;;;;;10.37;2.20;;;9.20;99.90;;;;;;5011946;28;20192;-73
2020/12/24 00:32:54;;;;;;;8.03;2.57;;;9.20;99.90;;;;;;5011948;28;20311;-73
2020/12/24 00:35:19;;;;;;;8.30;2.27;;;9.20;99.90;;;;;;5011555;28;20182;-73
2020/12/24 00:37:45;;;;;;;4.30;1.70;;;9.20;99.90;;;;;;5009989;28;20177;-73
2020/12/24 00:40:11;;;;;;;10.47;2.30;;;9.20;99.90;;;;;;5011291;28;20585;-72
2020/12/24 00:42:36;;;;;;;7.60;2.00;;;9.10;99.90;;;;;;5010736;28;20203;-72
2020/12/24 00:45:02;;;;;;;12.50;3.10;;;9.20;99.90;;;;;;5011128;28;20199;-73
2020/12/24 00:47:28;;;;;;;3.90;1.93;;;9.20;99.90;;;;;;5011773;28;20188;-73
2020/12/24 00:49:54;;;;;;;11.17;2.20;;;9.20;99.90;;;;;;5008829;28;20461;-72
2020/12/24 00:52:20;;;;;;;9.00;2.30;;;9.20;99.90;;;;;;5011922;28;20691;-73
2020/12/24 00:54:45;;;;;;;6.10;1.97;;;9.20;99.90;;;;;;5009743;28;20434;-72
2020/12/24 00:57:11;;;;;;;14.13;2.40;;;9.20;99.90;;;;;;5011177;28;20527;-72
2020/12/24 00:59:36;;;;;;;9.17;2.23;;;9.20;99.90;;;;;;5026058;28;20179;-71
2020/12/24 01:02:02;;;;;;;7.47;1.87;;;9.20;99.90;;;;;;5026527;28;20657;-72
2020/12/24 01:04:28;;;;;;;4.77;1.60;;;9.20;99.90;;;;;;5010510;28;20186;-72
2020/12/24 01:06:54;;;;;;;4.80;2.00;;;9.30;99.90;;;;;;5013222;28;20502;-73
2020/12/24 01:09:19;;;;;;;5.97;1.70;;;9.20;99.90;;;;;;5018004;28;20663;-74
2020/12/24 01:11:45;;;;;;;7.73;2.40;;;9.20;99.90;;;;;;5017318;28;20242;-75
2020/12/24 01:14:11;;;;;;;3.73;1.83;;;9.20;99.90;;;;;;5012089;28;20190;-73
2020/12/24 01:16:36;;;;;;;6.60;2.17;;;9.20;99.90;;;;;;5013478;28;20189;-73
2020/12/24 01:19:02;;;;;;;10.30;2.63;;;9.30;99.90;;;;;;5010504;28;20183;-73
2020/12/24 01:21:28;;;;;;;9.30;2.10;;;9.20;99.90;;;;;;5013206;28;20291;-73
2020/12/24 01:23:54;;;;;;;8.90;2.40;;;9.20;99.90;;;;;;5029977;28;20493;-74
2020/12/24 01:26:20;;;;;;;9.83;2.70;;;9.20;99.90;;;;;;5015479;28;20181;-73
2020/12/24 01:28:46;;;;;;;8.97;1.77;;;9.20;99.90;;;;;;5010984;28;20940;-71
2020/12/24 01:31:11;;;;;;;12.33;2.83;;;9.30;99.90;;;;;;5006041;28;20235;-71
2020/12/24 01:33:37;;;;;;;4.90;1.60;;;9.20;99.90;;;;;;5011307;28;20180;-71
2020/12/24 01:36:03;;;;;;;11.20;3.27;;;9.30;99.90;;;;;;5009812;28;20177;-73
2020/12/24 01:38:28;;;;;;;8.40;2.17;;;9.30;99.90;;;;;;5012022;28;20255;-73
2020/12/24 01:41:01;;;;;;;10.33;2.70;;;9.30;99.90;;;;;;5009888;28;20203;-73
2020/12/24 01:43:27;;;;;;;8.47;3.20;;;9.30;99.90;;;;;;5007064;28;20185;-72
2020/12/24 01:45:54;;;;;;;3.27;2.23;;;9.40;99.90;;;;;;5041348;28;20450;-73
2020/12/24 01:48:20;;;;;;;6.23;1.63;;;9.30;99.90;;;;;;5000272;28;20192;-73
2020/12/24 01:50:46;;;;;;;6.97;1.67;;;9.40;99.90;;;;;;5009321;28;20960;-73
2020/12/24 01:53:19;;;;;;;4.00;2.13;;;9.30;99.90;;;;;;5012797;28;20470;-73
2020/12/24 01:55:46;;;;;;;4.20;1.53;;;9.20;99.90;;;;;;5013174;28;20427;-72
2020/12/24 01:58:12;;;;;;;5.30;2.40;;;9.20;99.90;;;;;;5010288;28;20835;-73
2020/12/24 02:00:38;;;;;;;12.20;2.37;;;9.20;99.90;;;;;;5014098;28;20430;-72
2020/12/24 02:03:03;;;;;;;7.43;2.10;;;9.10;99.90;;;;;;5013602;28;20214;-73
2020/12/24 02:05:29;;;;;;;2.83;2.00;;;9.10;99.90;;;;;;5018615;28;20183;-74
2020/12/24 02:07:55;;;;;;;3.47;1.60;;;9.20;99.90;;;;;;5018121;28;20184;-73
2020/12/24 02:10:23;;;;;;;5.17;1.57;;;9.20;99.90;;;;;;5017101;28;20234;-74
2020/12/24 02:12:49;;;;;;;7.47;1.90;;;9.10;99.90;;;;;;5017680;28;20824;-75
2020/12/24 02:15:14;;;;;;;6.03;1.67;;;9.10;99.90;;;;;;5021131;28;20522;-74
2020/12/24 02:17:40;;;;;;;8.33;2.37;;;9.00;99.90;;;;;;5009007;28;20263;-74
2020/12/24 02:20:05;;;;;;;6.30;2.00;;;8.90;99.90;;;;;;5015682;28;20188;-72
2020/12/24 02:22:31;;;;;;;8.10;2.60;;;8.80;99.90;;;;;;5013284;28;20283;-73
2020/12/24 02:24:57;;;;;;;4.00;2.10;;;8.80;99.90;;;;;;5016748;28;20203;-75
2020/12/24 02:27:23;;;;;;;4.80;1.90;;;8.80;99.90;;;;;;5017688;28;20584;-75
2020/12/24 02:29:48;;;;;;;3.87;1.90;;;8.80;99.90;;;;;;5034051;28;20459;-74
2020/12/24 02:32:14;;;;;;;10.03;1.97;;;8.90;99.90;;;;;;5017027;28;20208;-74
2020/12/24 02:34:39;;;;;;;5.57;1.80;;;8.90;99.90;;;;;;5032875;28;20176;-74
2020/12/24 02:37:07;;;;;;;2.07;1.37;;;8.90;99.90;;;;;;5014462;28;20230;-73
2020/12/24 02:39:32;;;;;;;3.63;1.77;;;8.90;99.90;;;;;;5011415;28;20180;-73
2020/12/24 02:41:58;;;;;;;11.40;3.87;;;8.90;99.90;;;;;;5012722;28;20466;-73
2020/12/24 02:44:24;;;;;;;12.07;2.30;;;8.90;99.90;;;;;;5011724;28;20182;-72
2020/12/24 02:46:49;;;;;;;7.03;1.90;;;8.90;99.90;;;;;;5014603;28;20188;-75
2020/12/24 02:49:15;;;;;;;4.47;1.63;;;8.90;99.90;;;;;;5015171;28;20230;-72
2020/12/24 02:51:40;;;;;;;8.50;2.13;;;8.90;99.90;;;;;;5012285;28;20673;-72
2020/12/24 02:54:06;;;;;;;5.57;2.10;;;8.80;99.90;;;;;;5013290;28;20632;-73
2020/12/24 02:56:32;;;;;;;8.10;1.50;;;8.80;99.90;;;;;;5012169;28;20211;-74
2020/12/24 02:58:57;;;;;;;2.67;1.20;;;8.80;99.90;;;;;;5008402;28;20263;-72
2020/12/24 03:01:23;;;;;;;3.53;2.13;;;8.80;99.90;;;;;;5002285;28;20197;-74
2020/12/24 03:03:48;;;;;;;9.70;2.17;;;8.80;99.90;;;;;;5006072;28;20219;-72
2020/12/24 03:06:14;;;;;;;3.63;1.53;;;8.70;99.90;;;;;;5005896;28;20646;-74
2020/12/24 03:08:40;;;;;;;5.43;1.90;;;8.70;99.90;;;;;;5013221;28;20264;-72
2020/12/24 03:11:05;;;;;;;10.70;2.47;;;8.80;99.90;;;;;;5011191;28;20267;-72
2020/12/24 03:13:31;;;;;;;7.60;2.07;;;8.70;99.90;;;;;;5012925;28;20263;-73
2020/12/24 03:15:56;;;;;;;4.47;1.20;;;8.70;99.90;;;;;;5012422;28;20264;-73
2020/12/24 03:18:22;;;;;;;6.53;1.93;;;8.60;99.90;;;;;;5012129;28;21881;-74
2020/12/24 03:20:48;;;;;;;4.27;1.33;;;8.60;99.90;;;;;;5011740;28;20200;-73
2020/12/24 03:23:13;;;;;;;9.20;2.27;;;8.50;99.90;;;;;;5013072;28;20216;-72
2020/12/24 03:25:39;;;;;;;9.37;1.97;;;8.60;99.90;;;;;;5013276;28;20173;-72
2020/12/24 03:28:04;;;;;;;4.10;1.40;;;8.70;99.90;;;;;;5045473;28;20175;-74
2020/12/24 03:30:30;;;;;;;4.50;1.63;;;8.70;99.90;;;;;;5011290;28;20700;-72
2020/12/24 03:32:56;;;;;;;8.13;2.10;;;8.70;99.90;;;;;;5013076;28;20182;-72
2020/12/24 03:35:21;;;;;;;6.90;2.23;;;8.60;99.90;;;;;;5013464;28;20637;-72
2020/12/24 03:37:47;;;;;;;6.93;2.07;;;8.70;99.90;;;;;;5027220;28;20176;-74
2020/12/24 03:40:12;;;;;;;8.40;2.40;;;8.70;99.90;;;;;;5012576;28;20180;-73
2020/12/24 03:42:38;;;;;;;4.47;1.37;;;8.70;99.90;;;;;;5009581;28;20196;-73
2020/12/24 03:45:04;;;;;;;14.13;2.37;;;8.70;99.90;;;;;;5023595;28;20275;-73
2020/12/24 03:47:29;;;;;;;7.10;1.87;;;8.60;99.90;;;;;;5010514;28;20588;-73
2020/12/24 03:49:55;;;;;;;8.23;1.80;;;8.60;99.90;;;;;;5009555;28;20196;-73
2020/12/24 03:52:20;;;;;;;5.73;1.93;;;8.60;99.90;;;;;;5010886;28;20636;-74
2020/12/24 03:54:46;;;;;;;6.50;2.23;;;8.60;99.90;;;;;;5026668;28;20180;-73
2020/12/24 03:57:11;;;;;;;4.20;2.13;;;8.50;99.90;;;;;;5008953;28;20199;-73
2020/12/24 03:59:37;;;;;;;3.10;1.67;;;8.50;99.90;;;;;;5027686;28;20180;-73
2020/12/24 04:02:03;;;;;;;4.70;1.80;;;8.50;99.90;;;;;;5012085;28;20700;-73
2020/12/24 04:04:28;;;;;;;8.73;2.60;;;8.50;99.90;;;;;;5012850;28;20184;-73
2020/12/24 04:06:54;;;;;;;10.10;2.40;;;8.50;99.90;;;;;;5014227;28;20190;-74
2020/12/24 04:09:19;;;;;;;4.70;1.90;;;8.50;99.90;;;;;;5048491;28;20720;-74
2020/12/24 04:11:45;;;;;;;8.90;1.63;;;8.50;99.90;;;;;;5015558;28;20206;-75
2020/12/24 04:14:11;;;;;;;7.20;1.93;;;8.50;99.90;;;;;;5015350;28;20210;-73
2020/12/24 04:16:36;;;;;;;6.40;1.87;;;8.50;99.90;;;;;;5010945;28;20554;-73
2020/12/24 04:19:02;;;;;;;5.13;1.97;;;8.50;99.90;;;;;;5015731;28;20188;-74
2020/12/24 04:21:28;;;;;;;4.20;1.33;;;8.50;99.90;;;;;;5014889;28;20204;-75
2020/12/24 04:23:53;;;;;;;7.10;1.70;;;8.50;99.90;;;;;;5018416;28;20272;-74
2020/12/24 04:26:20;;;;;;;4.70;1.80;;;8.40;99.90;;;;;;5016486;28;20198;-75
2020/12/24 04:28:46;;;;;;;7.53;2.20;;;8.40;99.90;;;;;;5016018;28;20184;-75
2020/12/24 04:31:12;;;;;;;7.60;2.03;;;8.30;99.90;;;;;;5016414;28;20509;-74
2020/12/24 04:33:42;;;;;;;4.73;2.10;;;8.30;99.90;;;;;;5014777;28;20184;-73
2020/12/24 04:36:08;;;;;;;4.00;2.10;;;8.40;99.90;;;;;;5011022;28;20212;-73
2020/12/24 04:38:34;;;;;;;7.70;3.10;;;8.40;99.90;;;;;;5012296;28;20447;-73
2020/12/24 04:41:00;;;;;;;6.70;1.70;;;8.30;99.90;;;;;;5011739;28;20254;-73
2020/12/24 04:43:29;;;;;;;5.23;1.60;;;8.40;99.90;;;;;;5012000;28;20494;-73
2020/12/24 04:45:55;;;;;;;4.67;1.53;;;8.40;99.90;;;;;;5008234;28;20478;-74
2020/12/24 04:48:22;;;;;;;6.63;2.10;;;8.40;99.90;;;;;;5011313;28;20443;-74
2020/12/24 04:50:50;;;;;;;8.60;4.23;;;8.40;99.90;;;;;;5009725;28;20489;-74
2020/12/24 04:53:16;;;;;;;7.33;1.77;;;8.50;99.90;;;;;;5008352;28;20439;-74
2020/12/24 04:55:42;;;;;;;9.07;2.37;;;8.50;99.90;;;;;;5016250;28;21082;-76
2020/12/24 04:58:09;;;;;;;14.20;2.23;;;8.50;99.90;;;;;;5015887;28;20435;-75
2020/12/24 05:00:39;;;;;;;2.73;1.23;;;8.50;99.90;;;;;;5015057;28;20191;-75
2020/12/24 05:03:10;;;;;;;3.00;1.20;;;8.50;99.90;;;;;;5014235;28;20522;-75
2020/12/24 05:05:38;;;;;;;5.80;2.00;;;8.50;99.90;;;;;;5015047;28;20471;-75
2020/12/24 05:08:08;;;;;;;10.13;2.10;;;8.60;99.90;;;;;;5017081;28;21025;-75
2020/12/24 05:10:35;;;;;;;6.33;2.70;;;8.60;99.90;;;;;;5015949;28;20969;-73
2020/12/24 05:13:15;;;;;;;5.83;1.67;;;8.60;99.90;;;;;;5011476;28;20446;-74
2020/12/24 05:15:41;;;;;;;6.70;1.43;;;8.70;99.90;;;;;;5010326;28;20462;-74
2020/12/24 05:18:12;;;;;;;6.33;1.47;;;8.70;99.90;;;;;;5010632;28;20436;-75
2020/12/24 05:20:39;;;;;;;3.67;1.30;;;8.70;99.90;;;;;;5000836;28;20607;-75
2020/12/24 05:23:16;;;;;;;6.30;1.70;;;8.70;99.90;;;;;;5005446;28;20435;-75
2020/12/24 05:25:44;;;;;;;9.80;1.53;;;8.70;99.90;;;;;;5011677;28;20466;-75
2020/12/24 05:28:23;;;;;;;25.40;14.17;;;8.70;99.90;;;;;;5011971;28;20441;-75
2020/12/24 05:30:49;;;;;;;3.13;1.70;;;8.70;99.90;;;;;;5015131;28;20477;-75
2020/12/24 05:33:32;;;;;;;4.33;1.90;;;8.70;99.90;;;;;;5014123;28;20434;-75
2020/12/24 05:36:33;;;;;;;10.23;1.30;;;8.70;99.90;;;;;;5014221;28;20456;-74
2020/12/24 05:38:58;;;;;;;3.20;1.30;;;8.70;99.90;;;;;;5003129;28;20440;-75
2020/12/24 05:41:33;;;;;;;7.13;2.43;;;8.80;99.90;;;;;;5008906;28;20459;-74
2020/12/24 05:44:17;;;;;;;6.70;1.70;;;8.80;99.90;;;;;;5014906;28;20179;-75
2020/12/24 05:46:48;;;;;;;5.20;1.40;;;8.70;99.90;;;;;;5014251;28;20540;-75
2020/12/24 05:49:18;;;;;;;3.17;1.40;;;8.80;99.90;;;;;;5047472;28;20512;-75
2020/12/24 05:51:52;;;;;;;2.63;1.53;;;8.80;99.90;;;;;;5007661;28;20479;-74
2020/12/24 05:54:18;;;;;;;11.63;1.60;;;8.70;99.90;;;;;;5026897;28;20443;-75
2020/12/24 05:56:44;;;;;;;3.57;1.40;;;8.60;99.90;;;;;;5014609;28;20877;-75
2020/12/24 05:59:23;;;;;;;4.43;1.30;;;8.50;99.90;;;;;;5013540;28;20436;-75
2020/12/24 06:02:00;;;;;;;3.20;1.50;;;8.50;99.90;;;;;;5013332;28;20983;-75
2020/12/24 06:04:44;;;;;;;5.23;1.17;;;8.60;99.90;;;;;;5014839;28;20438;-75
2020/12/24 06:07:19;;;;;;;2.80;1.40;;;8.50;99.90;;;;;;4995491;28;20461;-75
2020/12/24 06:09:46;;;;;;;2.80;1.20;;;8.50;99.90;;;;;;4997345;28;20451;-76
2020/12/24 06:12:18;;;;;;;3.63;1.27;;;8.50;99.90;;;;;;5049594;28;20481;-75
2020/12/24 06:14:47;;;;;;;5.97;1.30;;;8.50;99.90;;;;;;5015311;28;20524;-75
2020/12/24 06:17:14;;;;;;;2.87;1.43;;;8.40;99.90;;;;;;5014557;28;20431;-75
2020/12/24 06:19:40;;;;;;;2.80;1.07;;;8.40;99.90;;;;;;5014607;28;20917;-75
2020/12/24 06:22:07;;;;;;;1.77;1.00;;;8.40;99.90;;;;;;5014432;28;20827;-75
2020/12/24 06:24:40;;;;;;;4.00;1.37;;;8.30;99.90;;;;;;5015675;28;20522;-76
2020/12/24 06:27:34;;;;;;;4.93;1.27;;;8.20;99.90;;;;;;5017760;28;20827;-74
2020/12/24 06:30:11;;;;;;;2.50;1.03;;;8.30;99.90;;;;;;5017541;28;20458;-76
2020/12/24 06:32:50;;;;;;;2.90;1.10;;;8.40;99.90;;;;;;5052226;28;20455;-75
2020/12/24 06:35:45;;;;;;;5.17;1.57;;;8.40;99.90;;;;;;5014294;28;20534;-75
2020/12/24 06:38:11;;;;;;;3.53;1.17;;;8.40;99.90;;;;;;4996749;28;20995;-75
2020/12/24 06:40:40;;;;;;;2.83;1.10;;;8.40;99.90;;;;;;5013430;28;20946;-75
2020/12/24 06:43:10;;;;;;;2.60;1.00;;;8.40;99.90;;;;;;5013046;28;20936;-75
2020/12/24 06:45:37;;;;;;;5.33;1.03;;;8.50;99.90;;;;;;5013463;28;20465;-75
2020/12/24 06:48:12;;;;;;;2.70;1.10;;;8.50;99.90;;;;;;5013697;28;20447;-74
2020/12/24 06:50:44;;;;;;;2.20;1.13;;;8.50;99.90;;;;;;5011612;28;20462;-75
2020/12/24 06:53:39;;;;;;;1.23;0.90;;;8.40;99.90;;;;;;5011870;28;20435;-75
2020/12/24 06:56:13;;;;;;;4.90;1.00;;;8.40;99.90;;;;;;5006028;28;20807;-75
2020/12/24 06:58:42;;;;;;;7.90;1.40;;;8.40;99.90;;;;;;5045381;28;20466;-75
2020/12/24 07:01:19;;;;;;;1.90;0.90;;;8.40;99.90;;;;;;5012586;28;20454;-75
2020/12/24 07:03:45;;;;;;;2.23;1.00;;;8.40;99.90;;;;;;5013557;28;20427;-74
2020/12/24 07:06:11;;;;;;;2.43;0.90;;;8.30;99.90;;;;;;5014182;28;20395;-74
2020/12/24 07:08:44;;;;;;;1.30;0.80;;;8.30;99.90;;;;;;5013074;28;20446;-75
2020/12/24 07:11:10;;;;;;;3.93;1.57;;;8.40;99.90;;;;;;5012390;28;20486;-75
2020/12/24 07:13:43;;;;;;;0.93;0.67;;;8.30;99.90;;;;;;5012403;28;20885;-75
2020/12/24 07:16:10;;;;;;;1.03;0.80;;;8.30;99.90;;;;;;5012967;28;20169;-75
2020/12/24 07:18:38;;;;;;;2.67;0.90;;;8.30;99.90;;;;;;5027074;28;20940;-75
2020/12/24 07:21:05;;;;;;;6.20;1.30;;;8.40;99.90;;;;;;5022665;28;20447;-75
2020/12/24 07:23:39;;;;;;;4.30;1.03;;;8.20;99.90;;;;;;5028548;28;20435;-75
2020/12/24 07:26:09;;;;;;;3.13;1.17;;;8.30;99.90;;;;;;5013306;28;20423;-75
2020/12/24 07:28:39;;;;;;;1.10;0.90;;;8.20;99.90;;;;;;5011631;28;20518;-75
2020/12/24 07:31:09;;;;;;;2.10;0.80;;;8.10;99.90;;;;;;5012205;28;20486;-75
2020/12/24 07:33:45;;;;;;;4.13;1.20;;;8.10;99.90;;;;;;5019290;28;20447;-75
2020/12/24 07:36:11;;;;;;;3.13;1.10;;;8.10;99.90;;;;;;5012185;28;20453;-75
2020/12/24 07:38:36;;;;;;;4.33;0.70;;;8.10;99.90;;;;;;5010533;28;20435;-75
2020/12/24 07:41:02;;;;;;;1.53;0.90;;;8.20;99.90;;;;;;5005325;28;20558;-75
2020/12/24 07:43:28;;;;;;;1.27;0.80;;;8.20;99.90;;;;;;5013038;28;20259;-75
2020/12/24 07:45:54;;;;;;;2.50;1.00;;;8.30;99.90;;;;;;5012721;28;20478;-75
2020/12/24 07:48:21;;;;;;;1.40;1.23;;;8.20;99.90;;;;;;5012776;28;20200;-75
2020/12/24 07:50:49;;;;;;;1.97;0.90;;;8.20;99.90;;;;;;5011809;28;20204;-75
2020/12/24 07:53:23;;;;;;;2.50;1.37;;;8.20;99.90;;;;;;5026428;28;20461;-75
2020/12/24 07:55:49;;;;;;;3.07;1.00;;;8.10;99.90;;;;;;5012409;28;20757;-74
2020/12/24 07:58:16;;;;;;;2.13;0.90;;;8.20;99.90;;;;;;5008535;28;20967;-74
2020/12/24 08:00:44;;;;;;;1.37;1.03;;;8.10;99.90;;;;;;5014870;28;20434;-75
2020/12/24 08:03:16;;;;;;;1.80;1.00;;;8.20;99.90;;;;;;5018828;28;20443;-75
2020/12/24 08:05:48;;;;;;;1.67;1.30;;;8.10;99.90;;;;;;5033401;28;20431;-74
2020/12/24 08:08:22;;;;;;;5.60;1.80;;;8.10;99.90;;;;;;5011497;28;20439;-74
2020/12/24 08:10:47;;;;;;;6.83;4.53;;;8.10;99.90;;;;;;5012262;28;20819;-74
2020/12/24 08:13:13;;;;;;;2.37;1.80;;;8.10;99.90;;;;;;5011863;28;20514;-75
2020/12/24 08:15:45;;;;;;;2.30;1.67;;;8.20;99.90;;;;;;5012180;28;20593;-75
2020/12/24 08:18:13;;;;;;;1.80;1.40;;;8.30;99.90;;;;;;5011671;28;20423;-74
2020/12/24 08:20:50;;;;;;;2.00;1.10;;;8.40;99.90;;;;;;5011821;28;20867;-74
2020/12/24 08:23:44;;;;;;;8.20;1.87;;;8.30;99.90;;;;;;5010064;28;21278;-74
2020/12/24 08:26:14;;;;;;;5.50;1.90;;;8.30;99.90;;;;;;5010142;28;20439;-74
2020/12/24 08:28:47;;;;;;;4.30;1.40;;;8.30;99.90;;;;;;5010796;28;20956;-74
2020/12/24 08:31:13;;;;;;;3.37;1.57;;;8.20;99.90;;;;;;5012240;28;20498;-74
2020/12/24 08:33:41;;;;;;;6.33;1.57;;;8.20;99.90;;;;;;5009926;28;20514;-74
2020/12/24 08:36:14;;;;;;;4.27;1.73;;;8.20;99.90;;;;;;5005221;28;20485;-74
2020/12/24 08:38:39;;;;;;;3.60;1.97;;;8.30;99.90;;;;;;5005518;28;20457;-74
2020/12/24 08:41:05;;;;;;;1.80;1.00;;;8.30;99.90;;;;;;5006910;28;20454;-74
2020/12/24 08:43:32;;;;;;;2.17;1.40;;;8.40;99.90;;;;;;5005398;28;20260;-75
2020/12/24 08:45:58;;;;;;;3.10;1.83;;;8.30;99.90;;;;;;5012771;28;20226;-74
2020/12/24 08:48:31;;;;;;;4.80;1.60;;;8.40;99.90;;;;;;5012503;28;20426;-74
2020/12/24 08:50:57;;;;;;;7.33;1.40;;;8.50;99.90;;;;;;5012476;28;20799;-74
2020/12/24 08:53:31;;;;;;;4.97;2.43;;;8.60;99.90;;;;;;5012488;28;20430;-74
2020/12/24 08:55:57;;;;;;;3.13;1.63;;;8.60;99.90;;;;;;5012726;28;20509;-74
2020/12/24 08:58:23;;;;;;;9.20;5.43;;;8.60;99.90;;;;;;5027610;28;20861;-74
2020/12/24 09:00:48;;;;;;;4.47;1.90;;;8.60;99.90;;;;;;5011512;28;20183;-75
2020/12/24 09:03:27;;;;;;;2.90;1.73;;;8.50;99.90;;;;;;5018339;28;20176;-74
2020/12/24 09:05:53;;;;;;;2.80;1.60;;;8.50;99.90;;;;;;5017423;28;20172;-73
2020/12/24 09:08:28;;;;;;;6.80;2.30;;;8.60;99.90;;;;;;5011910;28;20958;-73
2020/12/24 09:10:54;;;;;;;3.20;1.90;;;8.70;99.90;;;;;;5010428;28;21021;-74
2020/12/24 09:13:20;;;;;;;4.80;2.33;;;8.70;99.90;;;;;;5011245;28;20867;-74
2020/12/24 09:15:46;;;;;;;3.97;1.83;;;8.80;99.90;;;;;;5011680;28;20478;-74
2020/12/24 09:18:12;;;;;;;3.20;1.80;;;8.70;99.90;;;;;;5015960;28;20447;-76
2020/12/24 09:20:38;;;;;;;9.13;4.23;;;8.60;99.90;;;;;;5027615;28;20792;-75
2020/12/24 09:23:14;;;;;;;10.93;2.83;;;8.80;99.90;;;;;;5008922;28;20259;-75
2020/12/24 09:25:46;;;;;;;10.03;2.30;;;8.80;99.90;;;;;;5011230;28;20438;-75
2020/12/24 09:28:22;;;;;;;3.83;3.43;;;9.00;99.90;;;;;;5011032;28;20944;-75
2020/12/24 09:30:50;;;;;;;7.40;2.93;;;8.90;99.90;;;;;;5011865;28;20785;-75
2020/12/24 09:33:15;;;;;;;2.50;2.30;;;8.80;99.90;;;;;;5010313;28;20530;-74
2020/12/24 09:35:41;;;;;;;2.20;2.10;;;8.60;99.90;;;;;;5019342;28;21189;-76
2020/12/24 09:38:07;;;;;;;2.47;2.27;;;8.40;99.90;;;;;;5033353;28;20196;-76
2020/12/24 09:40:33;;;;;;;2.30;2.10;;;8.30;99.90;;;;;;5019413;28;20658;-75
2020/12/24 09:42:58;;;;;;;3.27;2.97;;;8.00;99.90;;;;;;5011061;28;20479;-75
2020/12/24 09:45:24;;;;;;;4.00;2.97;;;8.00;99.90;;;;;;5012408;28;20660;-75
2020/12/24 09:47:50;;;;;;;7.67;3.67;;;8.00;99.90;;;;;;5009994;28;20196;-75
2020/12/24 09:50:16;;;;;;;3.27;2.97;;;7.90;99.90;;;;;;5003561;28;20689;-75
2020/12/24 09:52:42;;;;;;;3.63;3.33;;;7.70;99.90;;;;;;5017903;28;20534;-75
2020/12/24 09:55:07;;;;;;;3.47;3.20;;;7.70;99.90;;;;;;5010722;28;20654;-75
2020/12/24 09:57:34;;;;;;;4.13;3.30;;;7.70;99.90;;;;;;5009512;28;20480;-75
2020/12/24 10:00:01;;;;;;;7.90;5.83;;;7.60;99.90;;;;;;5042882;28;20187;-75
2020/12/24 10:02:26;;;;;;;2.83;2.63;;;7.60;99.90;;;;;;5010528;28;20489;-75
2020/12/24 10:04:53;;;;;;;2.77;2.57;;;7.60;99.90;;;;;;5011100;28;20865;-75
2020/12/24 10:07:22;;;;;;;5.40;2.60;;;7.60;99.90;;;;;;5025840;28;20180;-75
2020/12/24 10:09:49;;;;;;;2.63;2.43;;;7.50;99.90;;;;;;5010362;28;20466;-75
2020/12/24 10:12:14;;;;;;;3.93;2.00;;;8.20;99.90;;;;;;5010752;28;20564;-75
2020/12/24 10:14:40;;;;;;;1.93;1.83;;;8.40;99.90;;;;;;5014145;28;20454;-74
2020/12/24 10:17:05;;;;;;;1.90;1.80;;;9.00;99.90;;;;;;5012611;28;20208;-74
2020/12/24 10:19:31;;;;;;;2.13;2.03;;;8.90;99.90;;;;;;5013241;28;20235;-74
2020/12/24 10:21:57;;;;;;;2.60;2.40;;;8.60;99.90;;;;;;5014151;28;20733;-74
2020/12/24 10:24:23;;;;;;;1.57;1.47;;;8.30;99.90;;;;;;5012455;28;20210;-75
2020/12/24 10:26:53;;;;;;;1.87;1.77;;;8.10;99.90;;;;;;5030276;28;20172;-74
2020/12/24 10:29:18;;;;;;;1.50;1.40;;;7.90;99.90;;;;;;5013802;28;20470;-74
2020/12/24 10:31:44;;;;;;;1.10;0.80;;;7.70;99.90;;;;;;5013760;28;20977;-75
2020/12/24 10:34:10;;;;;;;1.10;1.00;;;7.60;99.90;;;;;;5013482;28;20263;-74
2020/12/24 10:36:35;;;;;;;2.17;1.83;;;7.40;99.90;;;;;;5014727;28;20176;-74
2020/12/24 10:39:05;;;;;;;1.73;1.10;;;7.10;99.90;;;;;;5012697;28;20173;-75
2020/12/24 10:41:30;;;;;;;1.60;1.50;;;7.10;99.90;;;;;;5014447;28;20188;-75
2020/12/24 10:43:56;;;;;;;2.97;1.20;;;7.10;99.90;;;;;;5013077;28;20437;-75
2020/12/24 10:46:21;;;;;;;1.93;1.70;;;7.00;99.90;;;;;;5011701;28;20183;-75
2020/12/24 10:48:48;;;;;;;1.60;1.20;;;7.00;99.90;;;;;;5012686;28;20184;-75
2020/12/24 10:51:14;;;;;;;1.63;1.23;;;7.00;99.90;;;;;;5012775;28;20541;-74
2020/12/24 10:53:40;;;;;;;1.73;1.23;;;7.00;99.90;;;;;;5008609;28;20514;-75
2020/12/24 10:56:14;;;;;;;1.70;1.03;;;6.90;99.90;;;;;;5013388;28;21003;-75
2020/12/24 10:58:42;;;;;;;1.63;1.00;;;6.90;99.90;;;;;;5012810;28;20728;-75
2020/12/24 11:01:11;;;;;;;3.00;1.57;;;6.90;99.90;;;;;;5016248;28;20529;-74
2020/12/24 11:03:37;;;;;;;2.80;1.17;;;7.00;99.90;;;;;;5012102;28;20427;-74
2020/12/24 11:06:05;;;;;;;51.00;30.13;;;7.10;99.90;;;;;;5011197;28;20480;-74
2020/12/24 11:08:30;;;;;;;2.80;1.80;;;7.10;99.90;;;;;;5006204;28;20176;-75
2020/12/24 11:10:56;;;;;;;1.07;0.83;;;7.10;99.90;;;;;;5008090;28;20947;-75
2020/12/24 11:13:22;;;;;;;34.43;23.77;;;7.10;99.90;;;;;;5012894;28;20683;-75
2020/12/24 11:15:47;;;;;;;3.70;2.30;;;7.10;99.90;;;;;;5012075;28;20177;-75
2020/12/24 11:18:13;;;;;;;1.00;0.90;;;7.20;99.90;;;;;;5001702;28;20181;-75
2020/12/24 11:20:39;;;;;;;1.60;1.50;;;7.10;99.90;;;;;;5003350;28;20219;-74
2020/12/24 11:23:05;;;;;;;4.00;0.80;;;7.00;99.90;;;;;;5010048;28;20566;-75
2020/12/24 11:25:31;;;;;;;2.03;0.90;;;6.90;99.90;;;;;;5011448;28;20945;-75
2020/12/24 11:27:56;;;;;;;1.00;0.90;;;7.00;99.90;;;;;;5010271;28;20184;-75
2020/12/24 11:30:22;;;;;;;1.73;0.87;;;7.00;99.90;;;;;;5012397;28;20200;-75
2020/12/24 11:32:47;;;;;;;1.00;0.90;;;7.10;99.90;;;;;;5011696;28;20279;-75
2020/12/24 11:35:13;;;;;;;1.07;0.90;;;7.10;99.90;;;;;;5009922;28;20206;-75
2020/12/24 11:37:38;;;;;;;2.20;1.13;;;7.10;99.90;;;;;;5010730;28;20206;-74
2020/12/24 11:40:05;;;;;;;2.60;2.40;;;7.20;99.90;;;;;;5005495;28;20183;-74
2020/12/24 11:42:33;;;;;;;2.43;2.23;;;7.10;99.90;;;;;;5004285;28;20287;-75
2020/12/24 11:44:59;;;;;;;2.47;2.27;;;7.10;99.90;;;;;;5007498;28;20947;-74
2020/12/24 11:47:25;;;;;;;2.33;2.17;;;7.10;99.90;;;;;;5010118;28;20461;-73
2020/12/24 11:49:51;;;;;;;2.73;2.50;;;7.00;99.90;;;;;;5008013;28;20567;-74
2020/12/24 11:52:16;;;;;;;3.63;3.33;;;7.00;99.90;;;;;;5001284;28;20944;-74
2020/12/24 11:54:42;;;;;;;7.37;5.53;;;6.90;99.90;;;;;;5009359;28;20259;-73
2020/12/24 11:57:08;;;;;;;8.20;7.40;;;6.90;99.90;;;;;;5012161;28;20168;-74
2020/12/24 11:59:34;;;;;;;11.47;9.40;;;6.90;99.90;;;;;;5011142;28;20176;-73
2020/12/24 12:01:59;;;;;;;17.10;12.03;;;6.80;99.90;;;;;;5021912;28;20258;-75
2020/12/24 12:04:26;;;;;;;16.00;11.23;;;6.70;99.90;;;;;;5011462;28;20806;-74
2020/12/24 12:06:52;;;;;;;13.13;10.87;;;6.70;99.90;;;;;;5010716;28;20192;-74
2020/12/24 12:09:18;;;;;;;14.33;10.80;;;6.60;99.90;;;;;;5011038;28;20569;-75
2020/12/24 12:11:47;;;;;;;14.20;10.47;;;6.60;99.90;;;;;;5009264;28;20192;-74
2020/12/24 12:14:13;;;;;;;17.20;11.23;;;6.60;99.90;;;;;;5009273;28;20507;-74
2020/12/24 12:16:39;;;;;;;16.60;10.73;;;6.60;99.90;;;;;;5007505;28;21008;-75
2020/12/24 12:19:04;;;;;;;14.57;10.57;;;6.60;99.90;;;;;;5011817;28;20195;-75
2020/12/24 12:21:30;;;;;;;14.70;10.07;;;6.60;99.90;;;;;;5007963;28;20200;-74
2020/12/24 12:23:56;;;;;;;13.33;10.60;;;6.50;99.90;;;;;;5011230;28;20256;-75
2020/12/24 12:26:22;;;;;;;17.63;10.20;;;6.40;99.90;;;;;;5010308;28;20179;-74
2020/12/24 12:28:48;;;;;;;13.10;8.90;;;6.40;99.90;;;;;;5010682;28;20434;-74
2020/12/24 12:31:21;;;;;;;11.77;7.80;;;6.40;99.90;;;;;;5021610;28;20211;-74
2020/12/24 12:33:51;;;;;;;9.70;7.40;;;6.40;99.90;;;;;;5004485;28;20457;-74
2020/12/24 12:36:18;;;;;;;7.57;6.17;;;6.40;99.90;;;;;;5009479;28;20908;-74
2020/12/24 12:38:47;;;;;;;7.10;5.03;;;6.30;99.90;;;;;;5006768;28;20502;-74
2020/12/24 12:41:15;;;;;;;8.00;5.90;;;6.30;99.90;;;;;;5009322;28;20451;-74
2020/12/24 12:43:41;;;;;;;8.80;5.50;;;6.30;99.90;;;;;;5011519;28;20408;-74
2020/12/24 12:46:07;;;;;;;4.73;3.97;;;6.40;99.90;;;;;;5007498;28;20446;-74
2020/12/24 12:48:33;;;;;;;4.07;3.67;;;6.40;99.90;;;;;;5001724;28;20438;-75
2020/12/24 12:50:59;;;;;;;3.00;2.80;;;6.40;99.90;;;;;;5009132;28;20195;-74
2020/12/24 12:53:25;;;;;;;3.30;3.00;;;6.30;99.90;;;;;;5021021;28;20767;-74
2020/12/24 12:55:50;;;;;;;4.43;2.47;;;6.30;99.90;;;;;;5011177;28;20172;-74
2020/12/24 12:58:16;;;;;;;2.80;2.50;;;6.40;99.90;;;;;;5008626;28;20473;-75